Mc Connell Air Force Base
KIAB : now visible

Airfield :











YOU CAN JOIN US ON...

 
LOGIN :

Register | Disclaimer

   EN    FR    IT 

 









Legend :    VFR   Marginal VFR   IFR   Intensive IFR   Very Intensive IFR
Visi :
Ceiling :
>= 8 km
>= 3000ft
5 to 8 km
1000 to 3000 ft
1500m to 5 km
500 to 1000 ft
800 to 1500m
200 to 500 ft
< 800m
< 200 ft
Symbols :   Thunderstorms  Fog  Heavy snow  Heavy precipitations  Wind > 20 kt






- Airport Elevation : 1371 ft
- IATA code : IAB


KIAB - Mc Connell Air Force Base

CURRENT METAR :
  • 140056Z AUTO 22007KT 10SM BKN100 BKN140 08/00 A2980 RMK AO2 SLP100 T00781002 $

EXPIRED METARs :
  • 132356Z AUTO 26006KT 10SM CLR 10/00 A2981 RMK AO2 SLP102 T01001002 10148 20100 53007 $
  • 132256Z AUTO 26008KT 10SM CLR 12/00 A2979 RMK AO2 SLP094 T01170002 $

TAF TAF KIAB
Valid from the 13 at 18:00 until the 15 at 00:00 UTC


131800Z 1318/1424 VRB06KT 9999 SCT100 QNH2980INS
BECMG 1407/1408 35020G30KT 9999 SCT010 QNH2987INS
BECMG 1417/1418 35010G15KT 9999 SCT010 BKN040 OVC050 650409 QNH2983INS
BECMG 1422/1423 VRB06KT 9999 SCT017 QNH2987INS TX13/1321Z TNM02/1411Z



MET'MAP, your aeronautical weather chart ! - Copyright ORBIFLY December 2007 - Disclaimer

ORBIFLY MET'MAP TEAM :

Programming & Development : Alexandra Zaïnal
Concept & original design : Baudouin d'Aumeries
Assistance for programming : Marc-Olivier Méhu
Technical & hardware support : Manuel Goepfert

Contact : metmap@orbifly.com




SOURCES & CREDITS :

   NOAA       Earth
Advisory